Agnes, Georgia
Current Conditions -  °F | °C
As of 9:35 PM on Friday 28 Nov 2014 (Local Time) from KHQU Reporting Station
Clear Clear  
Wind Chill: 33°   Ceiling: Unl
Heat Index: 33°   Visibility: 10mi
Dew Point: 33°   Wind: 0mph
Humidity: 100%   Direction: NA
Pressure: 30.36"   Gusts: NA
Location:  33.7816°N, 82.4511°W
Report Text: KHQU 290235Z AUTO 00000KT 10SM CLR 01/01 A3036 RMK AO1 T00080008
Loading
Personal Weather Stations






























Interactive Weather Map New forecast layout! Learn more

10-Day Weather Forecast

Advertisements
Track Severe Weather on mobile